sim
Sign-in with your pilot id or email,
or register
Callsign
Passwort

Schedule Details

Flight Number: OEO9037
Departure: Bratislava M. R. Stefanik Airport (LZIB) at 07:25
Arrival: Munich Airport (EDDM) at 08:35

Weather Information
Getting current METAR information for LZIB 280230Z 26003KT CAVOK 11/06 Q1025
Getting current METAR information for EDDM 280250Z 26005KT CAVOK 10/07 Q1028 NOSIG

Schedule Frequency

Route Map